createdAt,value
2023-04-11T00:02:18.112Z,5.13
2023-04-11T00:04:47.782Z,4.55
2023-04-11T00:07:17.475Z,4.68
2023-04-11T00:09:47.112Z,4.88
2023-04-11T00:12:16.903Z,5.15
2023-04-11T00:14:50.392Z,4.82
2023-04-11T00:17:20.002Z,5.05
2023-04-11T00:19:50.207Z,4.72
2023-04-11T00:22:19.950Z,4.50
2023-04-11T00:24:49.483Z,4.68
2023-04-11T00:27:20.534Z,4.00
2023-04-11T00:29:51.327Z,4.32
2023-04-11T00:32:21.196Z,4.07
2023-04-11T00:34:50.782Z,4.90
2023-04-11T00:37:22.989Z,3.72
2023-04-11T00:39:54.435Z,3.60
2023-04-11T00:42:24.013Z,3.15
2023-04-11T00:44:53.638Z,3.75
2023-04-11T00:47:23.421Z,3.92
2023-04-11T00:49:53.022Z,3.47
2023-04-11T00:52:22.790Z,3.40
2023-04-11T00:54:53.006Z,3.88
2023-04-11T00:57:24.278Z,3.53
2023-04-11T00:59:54.260Z,3.50
2023-04-11T01:02:26.490Z,3.70
2023-04-11T01:04:57.237Z,3.25
2023-04-11T01:07:27.835Z,2.92
2023-04-11T01:09:57.813Z,3.35
2023-04-11T01:12:27.817Z,3.53
2023-04-11T01:14:57.458Z,3.03
2023-04-11T01:17:28.000Z,3.42
2023-04-11T01:19:57.781Z,2.83
2023-04-11T01:22:28.929Z,3.47
2023-04-11T01:24:58.627Z,3.75
2023-04-11T01:27:28.327Z,2.90
2023-04-11T01:29:57.983Z,3.42
2023-04-11T01:32:27.551Z,3.47
2023-04-11T01:34:59.673Z,3.67
2023-04-11T01:37:29.404Z,3.80
2023-04-11T01:39:59.107Z,3.28
2023-04-11T01:42:30.898Z,3.03
2023-04-11T01:45:01.576Z,2.92
2023-04-11T01:47:31.127Z,3.70
2023-04-11T01:50:00.723Z,3.15
2023-04-11T01:52:30.383Z,3.80
2023-04-11T01:55:00.034Z,3.60
2023-04-11T01:57:29.585Z,3.55
2023-04-11T01:59:59.121Z,2.90
2023-04-11T02:02:28.922Z,3.08
2023-04-11T02:04:58.573Z,4.30
2023-04-11T02:07:28.996Z,4.15
2023-04-11T02:10:00.372Z,3.85
2023-04-11T02:12:30.008Z,4.00
2023-04-11T02:14:59.560Z,4.22
2023-04-11T02:17:32.467Z,4.25
2023-04-11T02:20:02.597Z,5.68
2023-04-11T02:22:32.343Z,4.93
2023-04-11T02:25:02.265Z,5.03
2023-04-11T02:27:32.950Z,5.30
2023-04-11T02:30:02.716Z,5.20
2023-04-11T02:32:32.938Z,5.22
2023-04-11T02:35:02.915Z,5.30
2023-04-11T02:37:32.863Z,5.32
2023-04-11T02:40:05.424Z,5.03
2023-04-11T02:42:35.095Z,6.28
2023-04-11T02:45:05.374Z,5.18
2023-04-11T02:47:35.029Z,6.47
2023-04-11T02:50:04.657Z,5.47
2023-04-11T02:52:35.165Z,5.60
2023-04-11T02:55:05.352Z,5.53
2023-04-11T02:57:34.906Z,5.63
2023-04-11T03:00:08.636Z,5.53
2023-04-11T03:02:38.727Z,6.30
2023-04-11T03:05:09.015Z,5.35
2023-04-11T03:07:40.185Z,6.35
2023-04-11T03:10:10.675Z,5.03
2023-04-11T03:12:40.339Z,5.25
2023-04-11T03:15:10.488Z,5.78
2023-04-11T03:17:40.126Z,6.13
2023-04-11T03:20:13.204Z,6.82
2023-04-11T03:22:42.804Z,6.32
2023-04-11T03:25:12.830Z,6.18
2023-04-11T03:27:42.446Z,6.63
2023-04-11T03:30:12.477Z,6.60
2023-04-11T03:32:42.444Z,6.97
2023-04-11T03:35:12.286Z,6.25
2023-04-11T03:37:42.073Z,6.97
2023-04-11T03:40:12.205Z,7.55
2023-04-11T03:42:41.901Z,6.45
2023-04-11T03:45:11.943Z,7.40
2023-04-11T03:47:42.501Z,9.18
2023-04-11T03:50:12.772Z,9.77
2023-04-11T03:52:42.388Z,9.57
2023-04-11T03:55:12.153Z,9.40
2023-04-11T03:57:41.774Z,12.23
2023-04-11T04:00:12.313Z,9.82
2023-04-11T04:02:42.324Z,10.48
2023-04-11T04:05:12.367Z,11.52
2023-04-11T04:07:42.002Z,11.55
2023-04-11T04:10:11.901Z,12.43
2023-04-11T04:12:42.334Z,12.90
2023-04-11T04:15:12.872Z,11.27
2023-04-11T04:17:43.384Z,11.27
2023-04-11T04:20:13.331Z,9.57
2023-04-11T04:22:42.932Z,12.07
2023-04-11T04:25:14.218Z,13.43
2023-04-11T04:27:45.805Z,12.80
2023-04-11T04:30:20.680Z,14.52
2023-04-11T04:32:50.330Z,14.93
2023-04-11T04:35:19.916Z,14.65
2023-04-11T04:37:49.515Z,12.98
2023-04-11T04:40:21.963Z,12.98
2023-04-11T04:42:51.565Z,14.63
2023-04-11T04:45:21.264Z,10.50
2023-04-11T04:47:50.878Z,15.13
2023-04-11T04:50:21.450Z,12.15
2023-04-11T04:52:51.016Z,14.45
2023-04-11T04:55:20.554Z,12.50
2023-04-11T04:57:50.066Z,13.05
2023-04-11T05:00:21.153Z,11.65
2023-04-11T05:02:56.277Z,6.72
2023-04-11T05:05:25.994Z,10.00
2023-04-11T05:07:55.595Z,7.97
2023-04-11T05:10:25.287Z,7.53
2023-04-11T05:12:55.096Z,8.30
2023-04-11T05:15:25.057Z,7.40
2023-04-11T05:17:54.749Z,6.80
2023-04-11T05:20:26.253Z,7.65
2023-04-11T05:22:55.895Z,7.57
2023-04-11T05:25:25.476Z,7.78
2023-04-11T05:27:55.092Z,9.95
2023-04-11T05:30:24.840Z,10.55
2023-04-11T05:32:54.474Z,11.02
2023-04-11T05:35:24.181Z,11.55
2023-04-11T05:37:53.804Z,12.25
2023-04-11T05:40:23.487Z,9.07
2023-04-11T05:42:53.260Z,10.38
2023-04-11T05:45:22.866Z,9.82
2023-04-11T05:47:52.587Z,12.18
2023-04-11T05:50:22.176Z,12.20
2023-04-11T05:52:51.796Z,12.30
2023-04-11T05:55:21.440Z,12.88
2023-04-11T05:57:51.008Z,12.32
2023-04-11T06:00:22.405Z,10.60
2023-04-11T06:02:53.216Z,13.40
2023-04-11T06:05:23.527Z,13.60
2023-04-11T06:07:53.402Z,13.77
2023-04-11T06:10:23.031Z,14.32
2023-04-11T06:12:52.639Z,14.25
2023-04-11T06:15:23.038Z,15.00
2023-04-11T06:17:52.713Z,17.50
2023-04-11T06:20:23.517Z,19.23
2023-04-11T06:22:53.045Z,16.40
2023-04-11T06:25:23.722Z,19.20
2023-04-11T06:27:53.403Z,19.23
2023-04-11T06:30:23.016Z,21.23
2023-04-11T06:32:52.853Z,20.83
2023-04-11T06:35:26.295Z,20.77
2023-04-11T06:37:55.896Z,19.50
2023-04-11T06:40:25.475Z,20.95
2023-04-11T06:42:55.089Z,18.45
2023-04-11T06:45:24.702Z,15.85
2023-04-11T06:47:54.298Z,18.00
2023-04-11T06:50:24.346Z,19.35
2023-04-11T06:52:54.001Z,18.52
2023-04-11T06:55:24.499Z,21.23
2023-04-11T06:57:54.080Z,21.45
2023-04-11T07:00:23.892Z,17.48
2023-04-11T07:02:54.113Z,18.52
2023-04-11T07:05:23.794Z,21.10
2023-04-11T07:07:53.346Z,16.60
2023-04-11T07:10:23.050Z,17.08
2023-04-11T07:12:52.711Z,15.07
2023-04-11T07:15:23.073Z,19.02
2023-04-11T07:17:53.012Z,20.23
2023-04-11T07:20:22.752Z,19.05
2023-04-11T07:22:52.380Z,22.35
2023-04-11T07:25:24.101Z,20.38
2023-04-11T07:27:54.632Z,18.38
2023-04-11T07:30:24.731Z,24.95
2023-04-11T07:32:54.507Z,19.15
2023-04-11T07:35:24.790Z,18.73
2023-04-11T07:37:55.217Z,20.38
2023-04-11T07:40:24.895Z,23.00
2023-04-11T07:42:54.682Z,22.00
2023-04-11T07:45:24.400Z,22.88
2023-04-11T07:47:54.031Z,25.23
2023-04-11T07:50:23.698Z,20.88
2023-04-11T07:52:53.240Z,26.42
2023-04-11T07:55:22.867Z,23.42
2023-04-11T07:57:52.515Z,21.65
2023-04-11T08:00:24.351Z,27.85
2023-04-11T08:02:54.381Z,29.95
2023-04-11T08:05:24.120Z,23.95
2023-04-11T08:07:53.942Z,26.23
2023-04-11T08:10:23.550Z,22.27
2023-04-11T08:12:53.641Z,22.50
2023-04-11T08:15:23.553Z,26.30
2023-04-11T08:17:53.423Z,26.60
2023-04-11T08:20:23.083Z,29.77
2023-04-11T08:22:52.748Z,32.80
2023-04-11T08:25:26.547Z,26.67
2023-04-11T08:27:56.121Z,25.42
2023-04-11T08:30:26.359Z,25.95
2023-04-11T08:32:56.002Z,29.85
2023-04-11T08:35:25.695Z,23.63
2023-04-11T08:37:55.526Z,22.40
2023-04-11T08:40:26.979Z,24.85
2023-04-11T08:43:03.299Z,25.75
2023-04-11T08:45:32.907Z,22.92
2023-04-11T08:48:02.465Z,25.67
2023-04-11T08:50:32.154Z,21.50
2023-04-11T08:53:04.828Z,21.05
2023-04-11T08:55:34.446Z,29.77
2023-04-11T08:58:05.284Z,27.95
2023-04-11T09:00:34.980Z,25.00
2023-04-11T09:03:08.978Z,23.13
2023-04-11T09:05:43.976Z,26.83
2023-04-11T09:08:18.423Z,26.60
2023-04-11T09:10:48.696Z,24.38
2023-04-11T09:13:30.285Z,28.95
2023-04-11T09:16:13.770Z,24.65
2023-04-11T09:18:45.930Z,23.55
2023-04-11T09:21:17.534Z,24.00
2023-04-11T09:23:47.222Z,22.20
2023-04-11T09:26:31.859Z,27.00
2023-04-11T09:29:02.100Z,23.63
2023-04-11T09:31:47.874Z,21.10
2023-04-11T09:34:28.860Z,23.58
2023-04-11T09:36:59.030Z,24.08
2023-04-11T09:39:30.902Z,24.98
2023-04-11T09:42:00.950Z,24.15
2023-04-11T09:44:48.121Z,25.48
2023-04-11T09:47:17.857Z,24.30
2023-04-11T09:49:48.715Z,22.95
2023-04-11T09:52:19.886Z,22.13
2023-04-11T09:54:52.775Z,20.83
2023-04-11T09:57:24.735Z,22.88
2023-04-11T09:59:56.159Z,26.98
2023-04-11T10:02:25.842Z,23.95
2023-04-11T10:04:56.148Z,23.52
2023-04-11T10:07:26.348Z,24.25
2023-04-11T10:09:56.192Z,23.27
2023-04-11T10:12:36.770Z,25.80
2023-04-11T10:15:10.187Z,26.02
2023-04-11T10:17:41.386Z,26.15
2023-04-11T10:20:47.507Z,29.40
2023-04-11T10:23:18.049Z,27.15
2023-04-11T10:25:52.462Z,22.60
2023-04-11T10:28:41.523Z,23.67
2023-04-11T10:31:14.799Z,25.58
2023-04-11T10:34:16.830Z,24.23
2023-04-11T10:37:05.919Z,24.00
2023-04-11T10:39:53.629Z,21.17
2023-04-11T10:42:40.052Z,19.30
2023-04-11T10:45:30.494Z,24.05
2023-04-11T10:48:09.051Z,24.10
2023-04-11T10:50:42.543Z,19.13
2023-04-11T10:53:35.384Z,22.27
2023-04-11T10:56:05.556Z,19.00
2023-04-11T10:58:41.071Z,20.08
2023-04-11T11:01:26.641Z,20.60
2023-04-11T11:04:02.318Z,20.48
2023-04-11T11:06:32.985Z,20.50
2023-04-11T11:09:22.852Z,18.50
2023-04-11T11:12:17.731Z,17.83
2023-04-11T11:14:50.058Z,18.02
2023-04-11T11:17:20.317Z,16.33
2023-04-11T11:19:50.943Z,16.40
2023-04-11T11:22:30.149Z,19.25
2023-04-11T11:25:10.651Z,15.25
2023-04-11T11:27:40.275Z,17.60
2023-04-11T11:30:13.676Z,15.13
2023-04-11T11:32:43.283Z,17.33
2023-04-11T11:35:16.160Z,17.83
2023-04-11T11:37:45.974Z,15.97
2023-04-11T11:40:15.933Z,16.10
2023-04-11T11:42:45.956Z,15.23
2023-04-11T11:47:56.569Z,12.00
2023-04-11T11:50:33.493Z,13.75
2023-04-11T11:53:17.432Z,14.63
2023-04-11T11:58:16.952Z,11.70
2023-04-11T12:00:51.632Z,12.75
2023-04-11T12:03:25.326Z,14.25
2023-04-11T12:05:59.626Z,17.08
2023-04-11T12:08:29.177Z,12.35
2023-04-11T12:10:58.732Z,13.85
2023-04-11T12:13:29.288Z,11.80
2023-04-11T12:16:03.020Z,15.60
2023-04-11T12:18:32.705Z,16.33
2023-04-11T12:21:02.324Z,12.60
2023-04-11T12:23:31.891Z,15.77
2023-04-11T12:26:02.202Z,12.82
2023-04-11T12:28:32.078Z,14.90
2023-04-11T12:31:01.765Z,11.75
2023-04-11T12:33:31.399Z,13.60
2023-04-11T12:36:00.977Z,13.68
2023-04-11T12:38:30.508Z,15.10
2023-04-11T12:41:19.665Z,12.23
2023-04-11T12:43:49.706Z,12.18
2023-04-11T12:46:20.258Z,13.25
2023-04-11T12:48:49.956Z,12.65
2023-04-11T12:51:19.596Z,14.88
2023-04-11T12:53:49.153Z,11.70
2023-04-11T12:56:18.702Z,14.20
2023-04-11T12:58:48.453Z,12.38
2023-04-11T13:01:18.852Z,12.65
2023-04-11T13:03:48.597Z,12.50
2023-04-11T13:06:18.467Z,12.65
2023-04-11T13:08:48.600Z,12.43
2023-04-11T13:11:18.179Z,12.77
2023-04-11T13:13:47.886Z,10.88
2023-04-11T13:16:18.159Z,12.77
2023-04-11T13:18:47.820Z,11.18
2023-04-11T13:21:17.840Z,12.25
2023-04-11T13:23:47.894Z,11.32
2023-04-11T13:26:17.497Z,11.50
2023-04-11T13:28:47.902Z,11.45
2023-04-11T13:31:17.529Z,11.15
2023-04-11T13:33:49.383Z,10.45
2023-04-11T13:36:19.039Z,11.57
2023-04-11T13:38:49.742Z,11.50
2023-04-11T13:41:19.414Z,14.90
2023-04-11T13:43:49.140Z,13.38
2023-04-11T13:46:18.857Z,12.48
2023-04-11T13:48:48.786Z,10.05
2023-04-11T13:51:18.598Z,13.60
2023-04-11T13:53:48.155Z,12.02
2023-04-11T13:56:17.820Z,10.95
2023-04-11T13:58:47.681Z,11.75
2023-04-11T14:01:17.335Z,14.90
2023-04-11T14:03:46.962Z,13.80
2023-04-11T14:06:16.697Z,12.45
2023-04-11T14:08:46.277Z,13.05
2023-04-11T14:11:15.990Z,11.77
2023-04-11T14:13:45.571Z,15.20
2023-04-11T14:16:15.349Z,12.75
2023-04-11T14:18:46.089Z,10.77
2023-04-11T14:21:15.884Z,13.27
2023-04-11T14:23:45.432Z,13.32
2023-04-11T14:26:14.964Z,12.65
2023-04-11T14:28:44.544Z,15.02
2023-04-11T14:31:14.240Z,15.40
2023-04-11T14:33:43.860Z,15.27
2023-04-11T14:36:13.482Z,13.13
2023-04-11T14:38:43.017Z,16.30
2023-04-11T14:41:12.604Z,15.77
2023-04-11T14:43:42.728Z,16.05
2023-04-11T14:46:12.447Z,15.65
2023-04-11T14:48:42.048Z,16.45
2023-04-11T14:51:11.598Z,17.58
2023-04-11T14:53:41.207Z,17.17
2023-04-11T14:56:11.156Z,14.90
2023-04-11T14:58:41.391Z,14.70
2023-04-11T15:01:11.005Z,18.02
2023-04-11T15:03:40.701Z,17.23
2023-04-11T15:06:12.617Z,14.70
2023-04-11T15:08:42.711Z,14.15
2023-04-11T15:11:12.295Z,12.75
2023-04-11T15:13:41.875Z,14.82
2023-04-11T15:16:11.861Z,13.57
2023-04-11T15:18:42.197Z,14.65
2023-04-11T15:21:11.775Z,13.68
2023-04-11T15:23:41.672Z,12.65
2023-04-11T15:26:11.747Z,13.38
2023-04-11T15:28:43.154Z,11.27
2023-04-11T15:31:14.346Z,10.32
2023-04-11T15:33:44.658Z,13.30
2023-04-11T15:36:14.219Z,10.20
2023-04-11T15:38:43.772Z,9.90
2023-04-11T15:41:14.731Z,10.55
2023-04-11T15:43:44.375Z,9.73
2023-04-11T15:46:14.002Z,12.88
2023-04-11T15:48:43.541Z,11.10
2023-04-11T15:51:15.494Z,8.82
2023-04-11T15:53:45.097Z,9.90
2023-04-11T15:56:15.066Z,11.35
2023-04-11T15:58:44.803Z,8.35
2023-04-11T16:01:26.531Z,10.18
2023-04-11T16:03:57.036Z,10.65
2023-04-11T16:06:27.451Z,9.60
2023-04-11T16:08:57.590Z,9.68
2023-04-11T16:11:27.388Z,9.38
2023-04-11T16:13:57.389Z,9.30
2023-04-11T16:16:27.353Z,9.43
2023-04-11T16:18:56.967Z,10.63
2023-04-11T16:21:26.611Z,9.70
2023-04-11T16:23:56.867Z,8.20
2023-04-11T16:26:26.611Z,7.30
2023-04-11T16:28:56.220Z,9.75
2023-04-11T16:31:26.451Z,7.28
2023-04-11T16:33:56.744Z,9.40
2023-04-11T16:36:26.543Z,8.43
2023-04-11T16:38:56.698Z,8.07
2023-04-11T16:41:26.530Z,7.68
2023-04-11T16:43:56.391Z,7.82
2023-04-11T16:46:26.122Z,7.20
2023-04-11T16:48:55.672Z,11.52
2023-04-11T16:51:25.424Z,10.38
2023-04-11T16:53:55.244Z,9.55
2023-04-11T16:56:26.626Z,8.77
2023-04-11T16:58:57.437Z,8.20
2023-04-11T17:01:27.026Z,6.85
2023-04-11T17:03:57.385Z,8.25
2023-04-11T17:06:27.455Z,8.30
2023-04-11T17:08:58.907Z,7.90
2023-04-11T17:11:28.482Z,8.45
2023-04-11T17:13:58.154Z,8.43
2023-04-11T17:16:28.578Z,8.45
2023-04-11T17:18:58.272Z,8.50
2023-04-11T17:21:27.997Z,8.93
2023-04-11T17:23:58.113Z,6.97
2023-04-11T17:26:27.798Z,8.02
2023-04-11T17:28:57.399Z,8.30
2023-04-11T17:31:29.576Z,8.60
2023-04-11T17:33:59.520Z,9.80
2023-04-11T17:36:30.375Z,11.02
2023-04-11T17:38:59.940Z,8.23
2023-04-11T17:41:29.505Z,9.07
2023-04-11T17:43:59.414Z,8.80
2023-04-11T17:46:29.250Z,8.07
2023-04-11T17:48:58.799Z,9.02
2023-04-11T17:51:29.348Z,9.68
2023-04-11T17:53:59.533Z,6.68
2023-04-11T17:56:29.413Z,8.10
2023-04-11T17:58:58.971Z,9.10
2023-04-11T18:01:33.597Z,7.13
2023-04-11T18:04:03.804Z,9.32
2023-04-11T18:06:35.765Z,7.45
2023-04-11T18:09:05.698Z,7.13
2023-04-11T18:11:35.565Z,8.00
2023-04-11T18:14:05.219Z,8.98
2023-04-11T18:16:34.985Z,9.65
2023-04-11T18:19:07.891Z,8.30
2023-04-11T18:21:37.555Z,7.43
2023-04-11T18:24:07.315Z,7.13
2023-04-11T18:26:37.132Z,7.43
2023-04-11T18:29:07.545Z,7.78
2023-04-11T18:31:37.272Z,6.35
2023-04-11T18:34:07.525Z,9.75
2023-04-11T18:36:37.906Z,8.00
2023-04-11T18:39:07.469Z,7.03
2023-04-11T18:41:37.051Z,8.60
2023-04-11T18:44:09.241Z,6.13
2023-04-11T18:46:39.539Z,7.20
2023-04-11T18:49:09.843Z,8.32
2023-04-11T18:51:39.733Z,8.23
2023-04-11T18:54:09.336Z,7.65
2023-04-11T18:56:40.218Z,7.03
2023-04-11T18:59:10.692Z,7.53
2023-04-11T19:01:40.963Z,7.15
2023-04-11T19:04:10.926Z,8.82
2023-04-11T19:06:40.604Z,7.65
2023-04-11T19:09:10.823Z,7.80
2023-04-11T19:11:40.509Z,6.80
2023-04-11T19:14:11.620Z,7.63
2023-04-11T19:16:41.394Z,10.13
2023-04-11T19:19:11.029Z,7.43
2023-04-11T19:21:40.882Z,7.10
2023-04-11T19:24:11.197Z,7.60
2023-04-11T19:26:41.020Z,8.38
2023-04-11T19:29:10.674Z,7.80
2023-04-11T19:31:40.240Z,8.05
2023-04-11T19:34:09.874Z,6.50
2023-04-11T19:36:39.505Z,5.97
2023-04-11T19:39:09.823Z,5.78
2023-04-11T19:41:39.459Z,8.02
2023-04-11T19:44:09.128Z,5.85
2023-04-11T19:46:38.660Z,7.03
2023-04-11T19:49:08.376Z,6.95
2023-04-11T19:51:38.321Z,6.57
2023-04-11T19:54:07.915Z,5.22
2023-04-11T19:56:40.608Z,6.63
2023-04-11T19:59:10.229Z,8.30
2023-04-11T20:01:39.930Z,6.15
2023-04-11T20:04:09.755Z,6.22
2023-04-11T20:06:39.456Z,6.53
2023-04-11T20:09:09.039Z,7.95
2023-04-11T20:11:39.236Z,5.47
2023-04-11T20:14:09.634Z,6.28
2023-04-11T20:16:39.427Z,6.43
2023-04-11T20:19:09.744Z,7.40
2023-04-11T20:21:39.341Z,6.50
2023-04-11T20:24:11.009Z,4.53
2023-04-11T20:26:40.637Z,6.13
2023-04-11T20:29:10.179Z,7.32
2023-04-11T20:31:39.756Z,7.68
2023-04-11T20:34:09.420Z,9.50
2023-04-11T20:36:39.611Z,6.35
2023-04-11T20:39:09.306Z,6.75
2023-04-11T20:41:41.937Z,6.43
2023-04-11T20:44:11.550Z,5.57
2023-04-11T20:46:41.136Z,5.60
2023-04-11T20:49:10.959Z,7.53
2023-04-11T20:51:40.577Z,6.80
2023-04-11T20:54:10.177Z,5.57
2023-04-11T20:56:39.941Z,5.45
2023-04-11T20:59:10.652Z,7.88
2023-04-11T21:01:40.632Z,6.78
2023-04-11T21:04:11.221Z,5.07
2023-04-11T21:06:40.853Z,5.95
2023-04-11T21:09:10.960Z,7.50
2023-04-11T21:11:40.538Z,5.45
2023-04-11T21:14:10.107Z,6.30
2023-04-11T21:16:39.663Z,7.50
2023-04-11T21:19:09.203Z,10.30
2023-04-11T21:21:42.164Z,5.28
2023-04-11T21:24:11.802Z,7.70
2023-04-11T21:26:41.489Z,7.70
2023-04-11T21:29:12.280Z,6.28
2023-04-11T21:31:41.893Z,10.10
2023-04-11T21:34:11.499Z,6.72
2023-04-11T21:36:41.104Z,8.38
2023-04-11T21:39:10.834Z,8.18
2023-04-11T21:41:40.445Z,8.65
2023-04-11T21:44:10.022Z,6.90
2023-04-11T21:46:39.662Z,8.57
2023-04-11T21:49:09.377Z,5.57
2023-04-11T21:51:38.928Z,5.35
2023-04-11T21:54:08.645Z,7.15
2023-04-11T21:56:38.796Z,4.88
2023-04-11T21:59:08.625Z,5.28
2023-04-11T22:01:38.648Z,5.25
2023-04-11T22:04:12.194Z,5.80
2023-04-11T22:09:21.865Z,6.45
2023-04-11T22:11:51.974Z,6.07
2023-04-11T22:14:21.904Z,9.35
2023-04-11T22:16:51.543Z,5.88
2023-04-11T22:19:21.172Z,6.63
2023-04-11T22:21:57.325Z,7.43
2023-04-11T22:24:32.440Z,7.30
2023-04-11T22:27:05.693Z,5.55
2023-04-11T22:29:35.924Z,6.47
2023-04-11T22:32:05.798Z,6.82
2023-04-11T22:34:35.743Z,6.28
2023-04-11T22:37:05.508Z,5.30
2023-04-11T22:39:35.857Z,6.07
2023-04-11T22:42:06.336Z,6.82
2023-04-11T22:44:36.206Z,7.28
2023-04-11T22:47:15.060Z,7.65
2023-04-11T22:49:46.222Z,8.60
2023-04-11T22:52:16.376Z,9.27
2023-04-11T22:54:46.043Z,8.77
2023-04-11T22:57:15.643Z,7.15
2023-04-11T22:59:45.195Z,9.07
2023-04-11T23:02:16.315Z,7.72
2023-04-11T23:04:46.578Z,7.88
2023-04-11T23:07:18.537Z,8.50
2023-04-11T23:09:48.708Z,7.65
2023-04-11T23:12:18.516Z,7.38
2023-04-11T23:14:48.124Z,8.23
2023-04-11T23:17:17.901Z,8.15
2023-04-11T23:19:47.570Z,7.75
2023-04-11T23:22:17.490Z,7.82
2023-04-11T23:24:47.185Z,9.85
2023-04-11T23:27:16.759Z,9.32
2023-04-11T23:29:51.682Z,10.10
2023-04-11T23:32:21.725Z,8.57
2023-04-11T23:34:51.401Z,6.93
2023-04-11T23:37:21.200Z,7.80
2023-04-11T23:39:50.829Z,7.78
2023-04-11T23:42:20.355Z,6.50
2023-04-11T23:44:50.146Z,6.68
2023-04-11T23:47:19.722Z,5.97
2023-04-11T23:49:49.333Z,7.32
2023-04-11T23:52:18.899Z,6.78
2023-04-11T23:54:49.428Z,5.30
2023-04-11T23:57:19.294Z,7.22
2023-04-11T23:59:48.967Z,7.88
